createdAt,value
2023-03-11T00:05:44.153Z,98222.25
2023-03-11T00:12:26.368Z,98210.09
2023-03-11T00:19:11.006Z,98217.81
2023-03-11T00:25:53.486Z,98219.53
2023-03-11T00:32:35.820Z,98222.94
2023-03-11T00:39:18.115Z,98208.28
2023-03-11T00:46:00.408Z,98197.91
2023-03-11T00:52:42.688Z,98183.22
2023-03-11T00:59:26.242Z,98189.22
2023-03-11T01:06:09.142Z,98181.47
2023-03-11T01:12:51.792Z,98170.19
2023-03-11T01:19:34.309Z,98164.97
2023-03-11T01:26:16.599Z,98165.81
2023-03-11T01:32:59.146Z,98160.63
2023-03-11T01:39:41.535Z,98159.78
2023-03-11T01:46:33.338Z,98151.19
2023-03-11T01:53:17.648Z,98152.03
2023-03-11T02:00:02.487Z,98150.34
2023-03-11T02:06:58.608Z,98153.81
2023-03-11T02:13:41.974Z,98162.44
2023-03-11T02:20:41.978Z,98156.44
2023-03-11T02:27:28.652Z,98172.84
2023-03-11T02:34:21.654Z,98184.97
2023-03-11T02:41:06.994Z,98193.63
2023-03-11T02:47:51.852Z,98194.50
2023-03-11T02:54:34.499Z,98195.41
2023-03-11T03:01:16.948Z,98197.16
2023-03-11T03:08:02.782Z,98189.41
2023-03-11T03:14:45.141Z,98187.72
2023-03-11T03:21:27.584Z,98183.44
2023-03-11T03:28:13.420Z,98185.13
2023-03-11T03:35:00.675Z,98184.28
2023-03-11T03:41:57.010Z,98186.88
2023-03-11T03:48:42.328Z,98186.88
2023-03-11T03:55:26.600Z,98196.38
2023-03-11T04:02:09.825Z,98200.66
2023-03-11T04:08:54.517Z,98214.44
2023-03-11T04:15:41.616Z,98212.69
2023-03-11T04:22:24.529Z,98229.09
2023-03-11T04:29:06.887Z,98228.22
2023-03-11T04:35:55.014Z,98229.97
2023-03-11T04:42:39.211Z,98237.72
2023-03-11T04:49:22.242Z,98252.41
2023-03-11T04:56:06.300Z,98261.03
2023-03-11T05:02:51.587Z,98280.84
2023-03-11T05:09:35.481Z,98270.50
2023-03-11T05:16:18.210Z,98279.19
2023-03-11T05:23:01.249Z,98295.63
2023-03-11T05:29:46.106Z,98304.25
2023-03-11T05:36:29.709Z,98310.34
2023-03-11T05:43:12.242Z,98335.38
2023-03-11T05:49:57.727Z,98347.47
2023-03-11T05:56:40.009Z,98357.84
2023-03-11T06:03:23.219Z,98366.47
2023-03-11T06:10:07.095Z,98382.84
2023-03-11T06:16:49.482Z,98399.19
2023-03-11T06:23:34.777Z,98407.81
2023-03-11T06:30:19.008Z,98425.88
2023-03-11T06:37:09.640Z,98428.47
2023-03-11T06:43:51.963Z,98451.78
2023-03-11T06:50:34.364Z,98468.97
2023-03-11T06:57:18.611Z,98477.59
2023-03-11T07:04:03.945Z,98496.56
2023-03-11T07:10:59.067Z,98515.53
2023-03-11T07:17:41.369Z,98527.59
2023-03-11T07:24:24.708Z,98527.56
2023-03-11T07:31:31.008Z,98543.09
2023-03-11T07:38:13.289Z,98569.84
2023-03-11T07:44:55.527Z,98582.78
2023-03-11T07:51:41.118Z,98593.97
2023-03-11T07:58:23.765Z,98610.34
2023-03-11T08:05:06.996Z,98621.59
2023-03-11T08:11:49.881Z,98645.72
2023-03-11T08:18:33.197Z,98656.97
2023-03-11T08:25:15.710Z,98669.88
2023-03-11T08:31:57.976Z,98675.09
2023-03-11T08:38:40.419Z,98690.63
2023-03-11T08:45:23.133Z,98710.44
2023-03-11T08:52:05.863Z,98729.38
2023-03-11T08:58:48.247Z,98738.84
2023-03-11T09:05:30.552Z,98742.28
2023-03-11T09:12:14.171Z,98750.00
2023-03-11T09:18:56.980Z,98755.16
2023-03-11T09:25:39.567Z,98787.88
2023-03-11T09:32:21.890Z,98807.72
2023-03-11T09:39:04.264Z,98812.00
2023-03-11T09:46:24.445Z,98829.28
2023-03-11T09:53:31.403Z,98837.03
2023-03-11T10:00:19.286Z,98868.88
2023-03-11T10:07:07.011Z,98874.91
2023-03-11T10:14:43.030Z,98879.19
2023-03-11T10:21:50.825Z,98880.00
2023-03-11T10:28:40.547Z,98895.50
2023-03-11T10:35:29.596Z,98907.59
2023-03-11T10:42:17.527Z,98926.59
2023-03-11T10:48:59.720Z,98932.63
2023-03-11T10:56:04.905Z,98942.16
2023-03-11T11:02:52.835Z,98956.78
2023-03-11T11:09:35.094Z,98965.38
2023-03-11T11:16:20.900Z,98976.56
2023-03-11T11:23:04.419Z,98979.97
2023-03-11T11:29:48.821Z,98997.25
2023-03-11T11:36:36.131Z,99004.97
2023-03-11T11:43:36.224Z,99022.25
2023-03-11T11:50:45.586Z,99029.19
2023-03-11T11:57:28.635Z,99034.38
2023-03-11T12:04:37.102Z,99060.31
2023-03-11T12:11:34.313Z,99062.03
2023-03-11T12:18:40.135Z,99072.38
2023-03-11T12:25:50.959Z,99074.91
2023-03-11T12:32:46.925Z,99096.47
2023-03-11T12:39:34.474Z,99102.47
2023-03-11T12:46:18.034Z,99104.19
2023-03-11T12:53:00.258Z,99120.56
2023-03-11T13:00:18.979Z,99132.69
2023-03-11T13:07:22.833Z,99143.91
2023-03-11T13:14:34.376Z,99170.72
2023-03-11T13:21:29.979Z,99178.50
2023-03-11T13:28:46.155Z,99190.59
2023-03-11T13:36:16.230Z,99207.00
2023-03-11T13:43:04.856Z,99215.66
2023-03-11T13:50:14.561Z,99232.00
2023-03-11T13:57:01.005Z,99233.75
2023-03-11T14:03:46.265Z,99247.59
2023-03-11T14:10:30.733Z,99268.31
2023-03-11T14:17:19.199Z,99273.47
2023-03-11T14:24:03.905Z,99301.09
2023-03-11T14:30:58.962Z,99297.66
2023-03-11T14:37:41.139Z,99302.84
2023-03-11T14:44:24.820Z,99319.22
2023-03-11T14:51:29.614Z,99330.41
2023-03-11T14:58:23.946Z,99330.28
2023-03-11T15:05:26.920Z,99337.94
2023-03-11T15:12:32.233Z,99351.84
2023-03-11T15:19:33.292Z,99373.50
2023-03-11T15:26:29.936Z,99374.31
2023-03-11T15:33:32.968Z,99388.22
2023-03-11T15:40:35.300Z,99402.13
2023-03-11T15:47:24.875Z,99406.44
2023-03-11T15:54:07.127Z,99416.00
2023-03-11T16:00:56.569Z,99417.72
2023-03-11T16:07:40.171Z,99426.41
2023-03-11T16:14:22.676Z,99440.22
2023-03-11T16:21:10.070Z,99448.84
2023-03-11T16:27:54.976Z,99473.91
2023-03-11T16:34:40.830Z,99492.03
2023-03-11T16:41:23.142Z,99490.28
2023-03-11T16:48:06.078Z,99492.88
2023-03-11T16:54:48.884Z,99513.59
2023-03-11T17:01:31.209Z,99517.06
2023-03-11T17:08:13.624Z,99537.75
2023-03-11T17:14:56.344Z,99546.38
2023-03-11T17:21:39.133Z,99550.66
2023-03-11T17:28:21.360Z,99554.97
2023-03-11T17:35:04.228Z,99564.44
2023-03-11T17:41:48.134Z,99560.09
2023-03-11T17:48:30.306Z,99566.97
2023-03-11T17:55:12.585Z,99569.53
2023-03-11T18:01:54.866Z,99572.09
2023-03-11T18:08:37.551Z,99588.47
2023-03-11T18:15:20.173Z,99592.75
2023-03-11T18:22:02.532Z,99601.34
2023-03-11T18:28:45.508Z,99600.47
2023-03-11T18:35:27.870Z,99606.44
2023-03-11T18:42:10.156Z,99608.97
2023-03-11T18:48:57.693Z,99612.34
2023-03-11T18:55:39.985Z,99614.03
2023-03-11T19:02:22.345Z,99614.00
2023-03-11T19:09:06.660Z,99617.41
2023-03-11T19:15:49.305Z,99622.56
2023-03-11T19:22:31.580Z,99624.22
2023-03-11T19:29:14.820Z,99638.88
2023-03-11T19:36:00.531Z,99637.09
2023-03-11T19:42:44.411Z,99650.84
2023-03-11T19:49:26.792Z,99647.41
2023-03-11T19:56:10.222Z,99652.59
2023-03-11T20:02:56.820Z,99654.31
2023-03-11T20:09:39.200Z,99665.53
2023-03-11T20:16:22.603Z,99666.41
2023-03-11T20:23:05.071Z,99663.84
2023-03-11T20:29:47.361Z,99649.19
2023-03-11T20:36:34.383Z,99652.63
2023-03-11T20:43:16.877Z,99651.75
2023-03-11T20:50:02.048Z,99641.44
2023-03-11T20:56:44.594Z,99640.56
2023-03-11T21:03:26.966Z,99630.22
2023-03-11T21:10:12.322Z,99619.81
2023-03-11T21:16:54.816Z,99621.53
2023-03-11T21:23:38.424Z,99618.03
2023-03-11T21:30:21.225Z,99605.06
2023-03-11T21:37:03.832Z,99601.56
2023-03-11T21:43:46.927Z,99606.75
2023-03-11T21:50:29.524Z,99611.91
2023-03-11T21:57:11.876Z,99610.16
2023-03-11T22:03:55.256Z,99605.84
2023-03-11T22:10:38.867Z,99611.09
2023-03-11T22:17:21.362Z,99605.06
2023-03-11T22:24:03.969Z,99586.13
2023-03-11T22:30:46.406Z,99585.25
2023-03-11T22:37:28.801Z,99580.97
2023-03-11T22:44:11.083Z,99572.34
2023-03-11T22:50:53.303Z,99569.75
2023-03-11T22:57:38.856Z,99556.81
2023-03-11T23:04:21.311Z,99538.69
2023-03-11T23:11:07.794Z,99535.19
2023-03-11T23:17:50.336Z,99520.53
2023-03-11T23:24:32.813Z,99519.69
2023-03-11T23:31:16.559Z,99523.13
2023-03-11T23:37:59.527Z,99524.84
2023-03-11T23:44:41.759Z,99511.94
2023-03-11T23:51:24.008Z,99516.28
2023-03-11T23:58:06.854Z,99526.63
